Time;durP1;ratioP1;P1;durP2;ratioP2;P2;SDS_P1;SDS_P2;PMS_P1;PMS_P2;Temp;Humidity;BMP_temperature;BMP_pressure;BME280_temperature;BME280_humidity;BME280_pressure;Samples;Min_cycle;Max_cycle;Signal;HPM_P1;HPM_P2
2022/08/20 00:00:27;;;;;;;;;;;20.40;99.90;;;;;;5053249;28;19925;-51
2022/08/20 00:02:55;;;;;;;;;;;20.60;99.90;;;;;;5052497;28;20426;-50
2022/08/20 00:05:28;;;;;;;;;;;20.70;99.90;;;;;;5055132;28;19917;-53
2022/08/20 00:07:53;;;;;;;;;;;20.60;99.90;;;;;;5053918;28;19913;-52
2022/08/20 00:10:19;;;;;;;;;;;20.50;99.90;;;;;;5053299;28;19916;-52
2022/08/20 00:12:46;;;;;;;;;;;20.50;99.90;;;;;;5052824;28;20395;-52
2022/08/20 00:15:12;;;;;;;;;;;20.50;99.90;;;;;;5050887;28;19927;-48
2022/08/20 00:17:38;;;;;;;;;;;20.50;99.90;;;;;;5051944;28;19955;-49
2022/08/20 00:20:06;;;;;;;;;;;20.60;99.90;;;;;;5039929;28;20480;-49
2022/08/20 00:22:31;;;;;;;;;;;20.60;99.90;;;;;;5052847;28;19919;-51
2022/08/20 00:24:57;;;;;;;;;;;20.70;99.90;;;;;;5052193;28;20351;-52
2022/08/20 00:27:23;;;;;;;;;;;20.70;99.90;;;;;;5052303;28;20019;-50
2022/08/20 00:29:48;;;;;;;;;;;20.60;99.90;;;;;;5053046;28;20304;-56
2022/08/20 00:32:14;;;;;;;;;;;20.60;99.90;;;;;;5053230;28;19916;-47
2022/08/20 00:34:40;;;;;;;;;;;20.50;99.90;;;;;;5053139;28;20007;-53
2022/08/20 00:37:06;;;;;;;;;;;20.50;99.90;;;;;;5052729;28;19920;-50
2022/08/20 00:39:32;;;;;;;;;;;20.60;99.90;;;;;;5052524;28;20407;-50
2022/08/20 00:41:58;;;;;;;;;;;20.60;99.90;;;;;;5052687;28;19960;-52
2022/08/20 00:44:23;;;;;;;;;;;20.60;99.90;;;;;;5052810;28;19920;-50
2022/08/20 00:46:50;;;;;;;;;;;20.60;99.90;;;;;;5052803;28;19909;-52
2022/08/20 00:49:21;;;;;;;;;;;20.50;99.90;;;;;;5052668;28;19936;-53
2022/08/20 00:51:50;;;;;;;;;;;20.50;99.90;;;;;;5052922;28;20380;-52
2022/08/20 00:54:25;;;;;;;;;;;20.20;99.90;;;;;;5052336;28;19923;-53
2022/08/20 00:56:58;;;;;;;;;;;20.30;99.90;;;;;;5051682;28;20295;-56
2022/08/20 00:59:26;;;;;;;;;;;20.40;99.90;;;;;;5033315;28;20059;-52
2022/08/20 01:01:51;;;;;;;;;;;20.20;99.90;;;;;;5057591;28;19914;-47
2022/08/20 01:04:17;;;;;;;;;;;20.20;99.90;;;;;;5051109;28;20256;-49
2022/08/20 01:06:43;;;;;;;;;;;20.30;99.90;;;;;;5052359;28;19913;-53
2022/08/20 01:09:09;;;;;;;;;;;20.30;99.90;;;;;;5052063;28;20361;-49
2022/08/20 01:11:35;;;;;;;;;;;20.30;99.90;;;;;;5052750;28;19999;-52
2022/08/20 01:14:18;;;;;;;;;;;20.40;99.90;;;;;;5052571;28;20016;-51
2022/08/20 01:16:45;;;;;;;;;;;20.40;99.90;;;;;;5052051;28;20392;-51
2022/08/20 01:19:12;;;;;;;;;;;20.50;99.90;;;;;;5040078;28;19924;-53
2022/08/20 01:21:38;;;;;;;;;;;20.60;99.90;;;;;;5040467;28;20292;-52
2022/08/20 01:24:13;;;;;;;;;;;20.60;99.90;;;;;;5052531;28;19919;-49
2022/08/20 01:26:41;;;;;;;;;;;20.50;99.90;;;;;;5051983;28;19919;-48
2022/08/20 01:29:09;;;;;;;;;;;20.60;99.90;;;;;;5052468;28;19913;-51
2022/08/20 01:31:36;;;;;;;;;;;20.60;99.90;;;;;;5051873;28;19909;-53
2022/08/20 01:34:04;;;;;;;;;;;20.60;99.90;;;;;;5052073;28;19955;-54
2022/08/20 01:36:38;;;;;;;;;;;20.60;99.90;;;;;;5051615;28;20564;-48
2022/08/20 01:39:05;;;;;;;;;;;20.50;99.90;;;;;;5052105;28;20389;-55
2022/08/20 01:41:46;;;;;;;;;;;20.60;99.90;;;;;;5050459;28;20365;-51
2022/08/20 01:44:12;;;;;;;;;;;20.60;99.90;;;;;;5052179;28;19920;-51
2022/08/20 01:46:39;;;;;;;;;;;20.60;99.90;;;;;;5051428;28;19912;-49
2022/08/20 01:49:21;;;;;;;;;;;20.60;99.90;;;;;;5051749;28;20020;-52
2022/08/20 01:51:48;;;;;;;;;;;20.60;99.90;;;;;;5051448;28;19912;-56
2022/08/20 01:54:13;;;;;;;;;;;20.60;99.90;;;;;;5051271;28;20015;-49
2022/08/20 01:56:50;;;;;;;;;;;20.70;99.90;;;;;;5050149;28;20080;-53
2022/08/20 01:59:18;;;;;;;;;;;20.60;99.90;;;;;;5051235;28;19923;-50
2022/08/20 02:01:44;;;;;;;;;;;20.60;99.90;;;;;;5051210;28;19966;-48
2022/08/20 02:04:09;;;;;;;;;;;20.40;99.90;;;;;;5051555;28;19948;-50
2022/08/20 02:06:39;;;;;;;;;;;20.40;99.90;;;;;;5051250;28;19921;-54
2022/08/20 02:09:04;;;;;;;;;;;20.30;99.90;;;;;;5050887;28;19913;-50
2022/08/20 02:11:30;;;;;;;;;;;20.30;99.90;;;;;;5051123;28;19960;-52
2022/08/20 02:13:57;;;;;;;;;;;20.20;99.90;;;;;;5051299;28;20003;-51
2022/08/20 02:16:23;;;;;;;;;;;20.20;99.90;;;;;;5050809;28;19917;-49
2022/08/20 02:18:53;;;;;;;;;;;20.20;99.90;;;;;;5042331;28;19919;-48
2022/08/20 02:21:19;;;;;;;;;;;20.20;99.90;;;;;;5031561;28;19914;-51
2022/08/20 02:23:45;;;;;;;;;;;20.00;99.90;;;;;;5050956;28;19921;-52
2022/08/20 02:26:10;;;;;;;;;;;20.00;99.90;;;;;;5051230;28;19909;-48
2022/08/20 02:28:36;;;;;;;;;;;20.00;99.90;;;;;;5051272;28;20269;-48
2022/08/20 02:31:06;;;;;;;;;;;20.00;99.90;;;;;;5051170;28;19975;-51
2022/08/20 02:33:31;;;;;;;;;;;20.10;99.90;;;;;;5051050;28;19999;-49
2022/08/20 02:35:57;;;;;;;;;;;20.20;99.90;;;;;;5051143;28;20062;-52
2022/08/20 02:38:23;;;;;;;;;;;20.20;99.90;;;;;;5049594;28;20427;-53
2022/08/20 02:40:49;;;;;;;;;;;20.20;99.90;;;;;;5051261;28;19920;-51
2022/08/20 02:43:17;;;;;;;;;;;20.20;99.90;;;;;;5051596;28;20406;-49
2022/08/20 02:45:42;;;;;;;;;;;20.20;99.90;;;;;;5051277;28;20395;-53
2022/08/20 02:48:19;;;;;;;;;;;20.20;99.90;;;;;;5051010;28;19920;-53
2022/08/20 02:50:45;;;;;;;;;;;20.20;99.90;;;;;;5050875;28;19913;-54
2022/08/20 02:53:10;;;;;;;;;;;20.20;99.90;;;;;;5051199;28;20015;-52
2022/08/20 02:55:36;;;;;;;;;;;20.20;99.90;;;;;;5051807;28;19968;-51
2022/08/20 02:58:02;;;;;;;;;;;20.20;99.90;;;;;;5051383;28;19921;-53
2022/08/20 03:00:30;;;;;;;;;;;20.30;99.90;;;;;;5051403;28;19928;-50
2022/08/20 03:02:55;;;;;;;;;;;20.30;99.90;;;;;;5050953;28;19944;-48
2022/08/20 03:05:21;;;;;;;;;;;20.20;99.90;;;;;;5051732;28;20022;-54
2022/08/20 03:07:49;;;;;;;;;;;20.10;99.90;;;;;;5051002;28;19917;-53
2022/08/20 03:10:15;;;;;;;;;;;20.20;99.90;;;;;;5050934;28;20361;-51
2022/08/20 03:12:41;;;;;;;;;;;20.10;99.90;;;;;;5050698;28;19958;-52
2022/08/20 03:15:08;;;;;;;;;;;20.20;99.90;;;;;;5051149;28;19913;-49
2022/08/20 03:17:33;;;;;;;;;;;20.10;99.90;;;;;;5051020;28;19952;-52
2022/08/20 03:19:59;;;;;;;;;;;20.10;99.90;;;;;;5031926;28;19971;-48
2022/08/20 03:22:24;;;;;;;;;;;20.10;99.90;;;;;;5048668;28;19920;-51
2022/08/20 03:24:50;;;;;;;;;;;20.20;99.90;;;;;;5050642;28;19939;-50
2022/08/20 03:27:15;;;;;;;;;;;20.20;99.90;;;;;;5052728;28;19917;-52
2022/08/20 03:29:41;;;;;;;;;;;20.10;99.90;;;;;;5054054;28;19950;-49
2022/08/20 03:32:06;;;;;;;;;;;20.10;99.90;;;;;;5054241;28;19916;-47
2022/08/20 03:34:33;;;;;;;;;;;20.10;99.90;;;;;;5054281;28;20003;-50
2022/08/20 03:36:59;;;;;;;;;;;20.10;99.90;;;;;;5054389;28;20011;-48
2022/08/20 03:39:24;;;;;;;;;;;20.10;99.90;;;;;;5052689;28;20067;-51
2022/08/20 03:41:50;;;;;;;;;;;20.00;99.90;;;;;;5053959;28;20379;-50
2022/08/20 03:44:16;;;;;;;;;;;20.10;99.90;;;;;;5054010;28;19917;-50
2022/08/20 03:46:41;;;;;;;;;;;20.20;99.90;;;;;;5053578;28;20044;-48
2022/08/20 03:49:07;;;;;;;;;;;20.20;99.90;;;;;;5053992;28;19924;-49
2022/08/20 03:51:32;;;;;;;;;;;20.10;99.90;;;;;;5053200;28;20281;-49
2022/08/20 03:53:58;;;;;;;;;;;20.00;99.90;;;;;;5053777;28;19978;-50
2022/08/20 03:56:24;;;;;;;;;;;20.00;99.90;;;;;;5054058;28;20020;-51
2022/08/20 03:58:49;;;;;;;;;;;20.00;99.90;;;;;;5054029;28;19971;-50
2022/08/20 04:01:15;;;;;;;;;;;20.00;99.90;;;;;;5053732;28;19921;-49
2022/08/20 04:03:40;;;;;;;;;;;20.10;99.90;;;;;;5054015;28;19936;-49
2022/08/20 04:06:06;;;;;;;;;;;20.10;99.90;;;;;;5057424;28;19944;-47
2022/08/20 04:08:31;;;;;;;;;;;20.00;99.90;;;;;;5058240;28;19924;-49
2022/08/20 04:10:58;;;;;;;;;;;20.00;99.90;;;;;;5054026;28;20455;-48
2022/08/20 04:13:24;;;;;;;;;;;20.10;99.90;;;;;;5053047;28;19913;-47
2022/08/20 04:15:53;;;;;;;;;;;20.10;99.90;;;;;;5053677;28;20368;-52
2022/08/20 04:18:22;;;;;;;;;;;20.10;99.90;;;;;;5049862;28;19917;-51
2022/08/20 04:20:49;;;;;;;;;;;20.10;99.90;;;;;;5036104;28;20391;-54
2022/08/20 04:23:14;;;;;;;;;;;20.10;99.90;;;;;;5043223;28;19912;-49
2022/08/20 04:25:41;;;;;;;;;;;20.20;99.90;;;;;;5053374;28;19987;-50
2022/08/20 04:28:09;;;;;;;;;;;20.30;99.90;;;;;;5051701;28;20356;-47
2022/08/20 04:30:35;;;;;;;;;;;20.20;99.90;;;;;;5052880;28;19938;-46
2022/08/20 04:33:00;;;;;;;;;;;20.20;99.90;;;;;;5053331;28;19916;-48
2022/08/20 04:35:27;;;;;;;;;;;20.20;99.90;;;;;;5053206;28;19913;-52
2022/08/20 04:38:05;;;;;;;;;;;20.20;99.90;;;;;;5051907;28;19913;-53
2022/08/20 04:43:15;;;;;;;;;;;20.20;99.90;;;;;;5052679;28;20356;-53
2022/08/20 04:45:41;;;;;;;;;;;20.20;99.90;;;;;;5052718;28;19932;-52
2022/08/20 04:48:06;;;;;;;;;;;20.30;99.90;;;;;;5051575;28;20099;-48
2022/08/20 04:50:35;;;;;;;;;;;20.30;99.90;;;;;;5053502;28;20463;-49
2022/08/20 04:53:05;;;;;;;;;;;20.40;99.90;;;;;;5052767;28;20372;-50
2022/08/20 04:55:32;;;;;;;;;;;20.40;99.90;;;;;;5053360;28;19913;-49
2022/08/20 04:58:05;;;;;;;;;;;20.50;99.90;;;;;;5052484;28;19912;-52
2022/08/20 05:00:31;;;;;;;;;;;20.50;99.90;;;;;;5052847;28;19916;-49
2022/08/20 05:02:56;;;;;;;;;;;20.50;99.90;;;;;;5052680;28;19917;-50
2022/08/20 05:05:22;;;;;;;;;;;20.40;99.90;;;;;;5052336;28;19920;-50
2022/08/20 05:07:47;;;;;;;;;;;20.40;99.90;;;;;;5052319;28;19920;-49
2022/08/20 05:10:14;;;;;;;;;;;20.40;99.90;;;;;;5052346;28;19917;-48
2022/08/20 05:12:40;;;;;;;;;;;20.30;99.90;;;;;;5052701;28;20349;-47
2022/08/20 05:15:06;;;;;;;;;;;20.30;99.90;;;;;;5051925;28;19917;-52
2022/08/20 05:17:32;;;;;;;;;;;20.30;99.90;;;;;;5051895;28;19919;-55
2022/08/20 05:19:59;;;;;;;;;;;20.30;99.90;;;;;;5041983;28;19921;-48
2022/08/20 05:22:25;;;;;;;;;;;20.30;99.90;;;;;;5034193;28;20025;-53
2022/08/20 05:24:51;;;;;;;;;;;20.30;99.90;;;;;;5052133;28;19913;-53
2022/08/20 05:27:19;;;;;;;;;;;20.40;99.90;;;;;;5052439;28;19913;-52
2022/08/20 05:29:45;;;;;;;;;;;20.50;99.90;;;;;;5031903;28;19924;-51
2022/08/20 05:32:11;;;;;;;;;;;20.50;99.90;;;;;;5040274;28;20007;-51
2022/08/20 05:34:36;;;;;;;;;;;20.50;99.90;;;;;;5052084;28;19917;-54
2022/08/20 05:37:03;;;;;;;;;;;20.50;99.90;;;;;;5042873;28;19916;-48
2022/08/20 05:39:28;;;;;;;;;;;20.50;99.90;;;;;;5051550;28;19917;-52
2022/08/20 05:41:54;;;;;;;;;;;20.50;99.90;;;;;;5050016;28;20331;-53
2022/08/20 05:44:20;;;;;;;;;;;20.60;99.90;;;;;;5053278;28;20023;-48
2022/08/20 05:46:46;;;;;;;;;;;20.60;99.90;;;;;;5050890;28;19913;-48
2022/08/20 05:49:14;;;;;;;;;;;20.60;99.90;;;;;;5050938;28;19917;-52
2022/08/20 05:51:40;;;;;;;;;;;20.60;99.90;;;;;;5051156;28;19917;-52
2022/08/20 05:54:06;;;;;;;;;;;20.60;99.90;;;;;;5037616;28;20381;-54
2022/08/20 05:56:32;;;;;;;;;;;20.60;99.90;;;;;;5041556;28;20354;-55
2022/08/20 05:59:05;;;;;;;;;;;20.60;99.90;;;;;;5050633;28;20372;-49
2022/08/20 06:01:31;;;;;;;;;;;20.50;99.90;;;;;;5049198;28;19917;-48
2022/08/20 06:06:41;;;;;;;;;;;20.50;99.90;;;;;;5051789;28;20368;-48
2022/08/20 06:09:06;;;;;;;;;;;20.50;99.90;;;;;;5051576;28;19912;-51
2022/08/20 06:11:32;;;;;;;;;;;20.50;99.90;;;;;;5050780;28;20020;-53
2022/08/20 06:13:58;;;;;;;;;;;20.50;99.90;;;;;;5051642;28;19912;-50
2022/08/20 06:16:24;;;;;;;;;;;20.50;99.90;;;;;;5051272;28;19967;-48
2022/08/20 06:18:49;;;;;;;;;;;20.40;99.90;;;;;;5044361;28;20183;-50
2022/08/20 06:21:15;;;;;;;;;;;20.40;99.90;;;;;;5044480;28;19924;-50
2022/08/20 06:23:41;;;;;;;;;;;20.40;99.90;;;;;;5051759;28;19943;-52
2022/08/20 06:26:08;;;;;;;;;;;20.40;99.90;;;;;;5051333;28;20347;-50
2022/08/20 06:28:33;;;;;;;;;;;20.50;99.90;;;;;;5051342;28;19917;-52
2022/08/20 06:30:59;;;;;;;;;;;20.60;99.90;;;;;;5050805;28;19912;-50
2022/08/20 06:33:24;;;;;;;;;;;20.60;99.90;;;;;;5050090;28;20288;-49
2022/08/20 06:35:50;;;;;;;;;;;20.60;99.90;;;;;;5051008;28;19916;-47
2022/08/20 06:38:16;;;;;;;;;;;20.50;99.90;;;;;;5051016;28;20380;-47
2022/08/20 06:40:41;;;;;;;;;;;20.50;99.90;;;;;;5050933;28;20018;-50
2022/08/20 06:43:08;;;;;;;;;;;20.40;99.90;;;;;;5050842;28;20430;-56
2022/08/20 06:45:35;;;;;;;;;;;20.40;99.90;;;;;;5050742;28;19912;-48
2022/08/20 06:48:04;;;;;;;;;;;20.40;99.90;;;;;;5050447;28;20023;-47
2022/08/20 06:50:38;;;;;;;;;;;20.40;99.90;;;;;;5051856;28;19913;-46
2022/08/20 06:53:04;;;;;;;;;;;20.30;99.90;;;;;;5051002;28;19917;-52
2022/08/20 06:55:31;;;;;;;;;;;20.30;99.90;;;;;;5031493;28;20014;-52
2022/08/20 06:57:58;;;;;;;;;;;20.20;99.90;;;;;;5047477;28;20376;-48
2022/08/20 07:00:24;;;;;;;;;;;20.20;99.90;;;;;;5050733;28;19925;-54
2022/08/20 07:02:49;;;;;;;;;;;20.20;99.90;;;;;;5054405;28;19912;-52
2022/08/20 07:05:15;;;;;;;;;;;20.20;99.90;;;;;;5054572;28;19909;-51
2022/08/20 07:07:49;;;;;;;;;;;20.20;99.90;;;;;;5054123;28;19917;-51
2022/08/20 07:10:16;;;;;;;;;;;20.30;99.90;;;;;;5053942;28;20365;-50
2022/08/20 07:12:41;;;;;;;;;;;20.30;99.90;;;;;;5054627;28;19932;-56
2022/08/20 07:15:08;;;;;;;;;;;20.30;99.90;;;;;;5054092;28;19912;-51
2022/08/20 07:17:34;;;;;;;;;;;20.30;99.90;;;;;;5055365;28;20037;-52
2022/08/20 07:20:26;;;;;;;;;;;20.40;99.90;;;;;;5048749;28;19919;-53
2022/08/20 07:22:52;;;;;;;;;;;20.40;99.90;;;;;;5057674;28;19917;-51
2022/08/20 07:25:18;;;;;;;;;;;20.40;99.90;;;;;;5041042;28;20353;-48
2022/08/20 07:27:51;;;;;;;;;;;20.50;99.90;;;;;;5056125;28;19920;-52
2022/08/20 07:33:06;;;;;;;;;;;20.50;99.90;;;;;;5053094;28;19944;-49
2022/08/20 07:35:32;;;;;;;;;;;20.60;99.90;;;;;;5054514;28;19920;-49
2022/08/20 07:37:57;;;;;;;;;;;20.60;99.90;;;;;;5053971;28;19995;-53
2022/08/20 07:40:28;;;;;;;;;;;20.60;99.90;;;;;;5053211;28;19991;-52
2022/08/20 07:42:54;;;;;;;;;;;20.70;99.90;;;;;;5043587;28;19917;-48
2022/08/20 07:45:20;;;;;;;;;;;20.70;99.90;;;;;;5044039;28;19913;-49
2022/08/20 07:47:46;;;;;;;;;;;20.70;99.90;;;;;;5033883;28;19917;-48
2022/08/20 07:50:14;;;;;;;;;;;20.80;99.90;;;;;;5034066;28;19920;-47
2022/08/20 07:52:39;;;;;;;;;;;20.80;99.90;;;;;;5041192;28;20387;-51
2022/08/20 07:55:06;;;;;;;;;;;20.80;99.90;;;;;;5052109;28;19921;-47
2022/08/20 07:57:31;;;;;;;;;;;20.90;99.90;;;;;;5053994;28;20035;-54
2022/08/20 07:59:57;;;;;;;;;;;21.00;99.90;;;;;;5052065;28;20023;-51
2022/08/20 08:02:24;;;;;;;;;;;21.00;99.90;;;;;;5051342;28;20373;-52
2022/08/20 08:04:49;;;;;;;;;;;21.10;99.90;;;;;;5052753;28;19981;-50
2022/08/20 08:07:15;;;;;;;;;;;21.10;99.90;;;;;;5054008;28;19988;-55
2022/08/20 08:09:42;;;;;;;;;;;21.20;99.90;;;;;;5053856;28;19924;-55
2022/08/20 08:12:10;;;;;;;;;;;21.30;99.90;;;;;;5053958;28;19919;-51
2022/08/20 08:14:37;;;;;;;;;;;21.30;99.90;;;;;;5050727;28;19917;-50
2022/08/20 08:17:03;;;;;;;;;;;21.40;99.90;;;;;;5042874;28;20345;-52
2022/08/20 08:19:35;;;;;;;;;;;21.40;99.90;;;;;;5049552;28;19928;-56
2022/08/20 08:22:00;;;;;;;;;;;21.50;99.90;;;;;;5053289;28;19913;-53
2022/08/20 08:24:26;;;;;;;;;;;21.50;99.90;;;;;;5053591;28;19913;-55
2022/08/20 08:26:51;;;;;;;;;;;21.60;99.90;;;;;;5053521;28;20001;-53
2022/08/20 08:29:17;;;;;;;;;;;21.60;99.90;;;;;;5053181;28;20287;-56
2022/08/20 08:31:43;;;;;;;;;;;21.60;99.90;;;;;;5053426;28;19917;-53
2022/08/20 08:34:08;;;;;;;;;;;21.60;99.90;;;;;;5047735;28;19920;-49
2022/08/20 08:36:34;;;;;;;;;;;21.80;99.90;;;;;;5053043;28;19912;-53
2022/08/20 08:38:59;;;;;;;;;;;21.60;99.90;;;;;;5053049;28;20051;-53
2022/08/20 08:41:32;;;;;;;;;;;21.60;99.90;;;;;;5046803;28;20063;-54
2022/08/20 08:44:04;;;;;;;;;;;21.60;99.90;;;;;;5044559;28;20412;-50
2022/08/20 08:46:31;;;;;;;;;;;21.60;99.90;;;;;;5032995;28;19913;-50
2022/08/20 08:49:00;;;;;;;;;;;21.70;99.90;;;;;;5045089;28;20407;-48
2022/08/20 08:51:31;;;;;;;;;;;21.70;99.90;;;;;;5053065;28;19908;-53
2022/08/20 08:53:57;;;;;;;;;;;21.70;99.90;;;;;;5052166;28;19959;-47
2022/08/20 08:56:25;;;;;;;;;;;21.70;99.90;;;;;;5052816;28;20395;-51
2022/08/20 08:58:54;;;;;;;;;;;21.80;99.90;;;;;;5052168;28;19924;-49
2022/08/20 09:01:21;;;;;;;;;;;21.70;99.90;;;;;;5030345;28;20296;-50
2022/08/20 09:03:50;;;;;;;;;;;21.80;99.90;;;;;;5047230;28;20019;-52
2022/08/20 09:06:17;;;;;;;;;;;21.80;99.90;;;;;;5052381;28;19909;-49
2022/08/20 09:08:55;;;;;;;;;;;21.90;99.90;;;;;;5051673;28;19948;-48
2022/08/20 09:11:23;;;;;;;;;;;21.90;99.90;;;;;;5049363;28;19991;-52
2022/08/20 09:13:48;;;;;;;;;;;22.00;99.90;;;;;;5051238;28;19923;-48
2022/08/20 09:16:14;;;;;;;;;;;22.00;99.90;;;;;;5049119;28;19909;-52
2022/08/20 09:18:40;;;;;;;;;;;22.00;99.90;;;;;;5049417;28;19912;-52
2022/08/20 09:21:05;;;;;;;;;;;22.10;99.90;;;;;;5045245;28;20008;-49
2022/08/20 09:23:31;;;;;;;;;;;22.10;99.90;;;;;;5042943;28;19995;-52
2022/08/20 09:25:57;;;;;;;;;;;22.20;99.90;;;;;;5042084;28;19909;-52
2022/08/20 09:28:22;;;;;;;;;;;22.20;99.90;;;;;;5033998;28;19979;-50
2022/08/20 09:30:48;;;;;;;;;;;22.30;99.90;;;;;;5052714;28;20023;-49
2022/08/20 09:33:13;;;;;;;;;;;22.40;99.90;;;;;;5051770;28;19921;-50
2022/08/20 09:35:39;;;;;;;;;;;22.30;99.90;;;;;;5052774;28;19921;-47
2022/08/20 09:38:05;;;;;;;;;;;22.40;99.90;;;;;;5050703;28;19977;-49
2022/08/20 09:40:31;;;;;;;;;;;22.50;99.90;;;;;;5052745;28;19917;-46
2022/08/20 09:42:57;;;;;;;;;;;22.60;99.90;;;;;;5051921;28;20015;-51
2022/08/20 09:45:22;;;;;;;;;;;22.70;99.90;;;;;;5052138;28;19917;-51
2022/08/20 09:47:48;;;;;;;;;;;22.70;99.90;;;;;;5051916;28;19916;-56
2022/08/20 09:50:14;;;;;;;;;;;23.00;99.90;;;;;;5052334;28;19939;-49
2022/08/20 09:52:47;;;;;;;;;;;23.10;99.90;;;;;;5050371;28;19959;-52
2022/08/20 09:55:21;;;;;;;;;;;23.20;99.90;;;;;;5051846;28;19931;-49
2022/08/20 09:57:47;;;;;;;;;;;23.30;99.90;;;;;;5051288;28;19913;-56
2022/08/20 10:00:13;;;;;;;;;;;23.30;99.90;;;;;;5051098;28;19924;-53
2022/08/20 10:02:39;;;;;;;;;;;23.20;99.90;;;;;;5051220;28;19921;-53
2022/08/20 10:05:05;;;;;;;;;;;23.20;99.90;;;;;;5051166;28;19909;-52
2022/08/20 10:07:33;;;;;;;;;;;23.40;99.90;;;;;;5035891;28;20348;-52
2022/08/20 10:09:58;;;;;;;;;;;23.50;99.90;;;;;;5051472;28;20319;-55
2022/08/20 10:12:24;;;;;;;;;;;23.60;99.90;;;;;;5051477;28;20000;-47
2022/08/20 10:14:49;;;;;;;;;;;23.60;99.90;;;;;;5051636;28;19935;-51
2022/08/20 10:17:15;;;;;;;;;;;23.60;99.90;;;;;;5051052;28;19928;-56
2022/08/20 10:19:40;;;;;;;;;;;23.70;99.90;;;;;;5035503;28;19968;-53
2022/08/20 10:22:06;;;;;;;;;;;23.80;99.90;;;;;;5048680;28;20023;-50
2022/08/20 10:24:32;;;;;;;;;;;23.80;99.90;;;;;;5051503;28;19963;-49
2022/08/20 10:26:59;;;;;;;;;;;23.90;99.90;;;;;;5047056;28;19952;-48
2022/08/20 10:29:25;;;;;;;;;;;23.80;99.90;;;;;;5043394;28;19913;-53
2022/08/20 10:31:51;;;;;;;;;;;23.80;99.90;;;;;;5038526;28;20336;-53
2022/08/20 10:34:17;;;;;;;;;;;23.80;99.90;;;;;;5040844;28;19913;-50
2022/08/20 10:36:42;;;;;;;;;;;23.80;99.90;;;;;;5052986;28;20353;-50
2022/08/20 10:39:08;;;;;;;;;;;23.80;99.90;;;;;;5056494;28;20361;-51
2022/08/20 10:41:33;;;;;;;;;;;23.90;99.90;;;;;;5057039;28;19962;-51
2022/08/20 10:43:59;;;;;;;;;;;23.90;99.90;;;;;;5055472;28;19936;-47
2022/08/20 10:46:25;;;;;;;;;;;23.60;99.90;;;;;;5047227;28;19913;-49
2022/08/20 10:48:51;;;;;;;;;;;23.50;99.90;;;;;;5056654;28;20023;-48
2022/08/20 10:51:16;;;;;;;;;;;23.50;99.90;;;;;;5055662;28;19971;-53
2022/08/20 10:53:42;;;;;;;;;;;23.70;99.90;;;;;;5055185;28;19925;-49
2022/08/20 10:56:07;;;;;;;;;;;24.00;99.90;;;;;;5055334;28;19969;-52
2022/08/20 10:58:33;;;;;;;;;;;24.00;99.90;;;;;;5055302;28;19924;-49
2022/08/20 11:00:59;;;;;;;;;;;24.10;99.90;;;;;;5054889;28;19916;-51
2022/08/20 11:03:24;;;;;;;;;;;24.00;99.90;;;;;;5054943;28;20292;-52
2022/08/20 11:05:50;;;;;;;;;;;23.90;99.90;;;;;;5055159;28;19913;-51
2022/08/20 11:08:15;;;;;;;;;;;24.10;99.70;;;;;;5055045;28;19948;-52
2022/08/20 11:10:41;;;;;;;;;;;24.30;99.90;;;;;;5054934;28;20284;-51
2022/08/20 11:13:07;;;;;;;;;;;24.40;99.40;;;;;;5053376;28;19912;-51
2022/08/20 11:15:34;;;;;;;;;;;24.40;99.10;;;;;;5046218;28;19956;-52
2022/08/20 11:17:59;;;;;;;;;;;24.30;98.90;;;;;;5051782;28;19959;-50
2022/08/20 11:20:25;;;;;;;;;;;24.20;98.30;;;;;;5051519;28;19921;-55
2022/08/20 11:22:51;;;;;;;;;;;24.10;99.30;;;;;;5052691;28;19917;-49
2022/08/20 11:25:17;;;;;;;;;;;24.10;99.20;;;;;;5053930;28;19909;-50
2022/08/20 11:27:45;;;;;;;;;;;24.00;98.30;;;;;;5053705;28;19917;-48
2022/08/20 11:30:12;;;;;;;;;;;23.90;98.00;;;;;;5054789;28;19909;-49
2022/08/20 11:32:38;;;;;;;;;;;23.90;98.30;;;;;;5054093;28;19913;-51
2022/08/20 11:35:04;;;;;;;;;;;24.00;98.40;;;;;;5054837;28;19909;-52
2022/08/20 11:37:33;;;;;;;;;;;24.10;97.90;;;;;;5053515;28;19912;-55
2022/08/20 11:39:59;;;;;;;;;;;24.10;97.70;;;;;;5054476;28;19959;-51
2022/08/20 11:42:24;;;;;;;;;;;24.10;97.60;;;;;;5053974;28;19964;-51
2022/08/20 11:44:50;;;;;;;;;;;23.90;97.90;;;;;;5054647;28;19999;-53
2022/08/20 11:47:24;;;;;;;;;;;23.90;98.00;;;;;;5053574;28;19948;-53
2022/08/20 11:50:01;;;;;;;;;;;23.80;97.90;;;;;;5054261;28;19913;-52
2022/08/20 11:52:27;;;;;;;;;;;23.80;98.30;;;;;;5054139;28;19912;-50
2022/08/20 11:54:52;;;;;;;;;;;23.90;98.20;;;;;;5053292;28;19932;-53
2022/08/20 11:57:19;;;;;;;;;;;24.00;98.20;;;;;;5054081;28;19925;-49
2022/08/20 11:59:47;;;;;;;;;;;24.00;98.20;;;;;;5053986;28;20063;-55
2022/08/20 12:02:12;;;;;;;;;;;24.00;98.20;;;;;;5053973;28;19922;-48
2022/08/20 12:04:38;;;;;;;;;;;24.00;98.10;;;;;;5036469;28;19913;-48
2022/08/20 12:07:08;;;;;;;;;;;24.10;97.80;;;;;;5054584;28;20295;-55
2022/08/20 12:09:33;;;;;;;;;;;24.10;97.70;;;;;;5052403;28;19917;-55
2022/08/20 12:11:59;;;;;;;;;;;24.20;97.70;;;;;;5055022;28;19917;-48
2022/08/20 12:14:25;;;;;;;;;;;24.30;97.80;;;;;;5054421;28;19962;-50
2022/08/20 12:16:51;;;;;;;;;;;24.40;97.70;;;;;;5054385;28;19919;-50
2022/08/20 12:19:16;;;;;;;;;;;24.60;97.10;;;;;;5041435;28;19909;-57
2022/08/20 12:21:42;;;;;;;;;;;24.70;97.40;;;;;;5036185;28;19917;-56
2022/08/20 12:24:07;;;;;;;;;;;24.50;97.30;;;;;;5048161;28;19913;-53
2022/08/20 12:26:33;;;;;;;;;;;24.40;97.70;;;;;;5054142;28;19916;-49
2022/08/20 12:28:59;;;;;;;;;;;24.30;97.90;;;;;;5054108;28;19913;-53
2022/08/20 12:31:24;;;;;;;;;;;24.40;97.80;;;;;;5052483;28;19917;-53
2022/08/20 12:33:50;;;;;;;;;;;24.50;97.80;;;;;;5054148;28;20268;-54
2022/08/20 12:36:15;;;;;;;;;;;24.60;97.80;;;;;;5053591;28;20349;-51
2022/08/20 12:38:41;;;;;;;;;;;24.70;97.70;;;;;;5047984;28;19917;-48
2022/08/20 12:41:07;;;;;;;;;;;24.80;97.60;;;;;;5050148;28;20327;-52
2022/08/20 12:43:32;;;;;;;;;;;24.90;97.30;;;;;;5040765;28;19916;-54
2022/08/20 12:45:58;;;;;;;;;;;25.00;96.50;;;;;;5043751;28;19952;-50
2022/08/20 12:48:23;;;;;;;;;;;24.90;96.60;;;;;;5039641;28;19959;-51
2022/08/20 12:50:51;;;;;;;;;;;24.90;96.60;;;;;;5053723;28;19917;-54
2022/08/20 12:53:17;;;;;;;;;;;25.00;96.70;;;;;;5053429;28;20400;-51
2022/08/20 12:55:43;;;;;;;;;;;25.00;97.00;;;;;;5051251;28;20062;-49
2022/08/20 12:58:09;;;;;;;;;;;24.90;97.30;;;;;;5051055;28;19927;-49
2022/08/20 13:00:36;;;;;;;;;;;24.80;97.40;;;;;;5050486;28;19971;-49
2022/08/20 13:03:03;;;;;;;;;;;24.80;97.60;;;;;;5050905;28;19960;-53
2022/08/20 13:05:29;;;;;;;;;;;24.80;97.50;;;;;;5051334;28;19944;-51
2022/08/20 13:07:54;;;;;;;;;;;24.60;97.60;;;;;;5051571;28;19909;-53
2022/08/20 13:10:22;;;;;;;;;;;24.60;97.60;;;;;;5052687;28;19981;-50
2022/08/20 13:12:48;;;;;;;;;;;24.60;97.90;;;;;;5052617;28;20424;-51
2022/08/20 13:15:14;;;;;;;;;;;24.70;97.80;;;;;;5049734;28;19917;-55
2022/08/20 13:17:40;;;;;;;;;;;24.80;97.50;;;;;;5046697;28;19913;-52
2022/08/20 13:20:08;;;;;;;;;;;24.90;97.60;;;;;;5051679;28;19917;-56
2022/08/20 13:22:34;;;;;;;;;;;25.00;97.30;;;;;;5052234;28;19908;-53
2022/08/20 13:25:00;;;;;;;;;;;25.20;96.80;;;;;;5052978;28;19936;-51
2022/08/20 13:27:25;;;;;;;;;;;25.30;96.60;;;;;;5053044;28;19936;-50
2022/08/20 13:29:52;;;;;;;;;;;25.30;96.50;;;;;;5051573;28;20395;-47
2022/08/20 13:32:17;;;;;;;;;;;25.50;96.10;;;;;;5051513;28;19920;-52
2022/08/20 13:34:44;;;;;;;;;;;25.40;95.70;;;;;;5051580;28;19920;-50
2022/08/20 13:37:21;;;;;;;;;;;25.30;95.30;;;;;;5051902;28;19917;-50
2022/08/20 13:39:47;;;;;;;;;;;25.20;95.50;;;;;;5052055;28;19916;-54
2022/08/20 13:42:13;;;;;;;;;;;25.20;95.70;;;;;;5052134;28;19909;-54
2022/08/20 13:44:38;;;;;;;;;;;25.30;95.40;;;;;;5051287;28;19946;-50
2022/08/20 13:47:19;;;;;;;;;;;25.20;95.00;;;;;;5052302;28;19917;-49
2022/08/20 13:49:46;;;;;;;;;;;25.10;95.00;;;;;;5051153;28;20016;-54
2022/08/20 13:52:12;;;;;;;;;;;24.80;95.40;;;;;;5051933;28;19935;-52
2022/08/20 13:54:38;;;;;;;;;;;24.60;95.80;;;;;;5041327;28;19924;-53
2022/08/20 13:57:08;;;;;;;;;;;24.60;95.90;;;;;;5049764;28;19913;-49
2022/08/20 13:59:38;;;;;;;;;;;24.60;95.80;;;;;;5047887;28;19936;-52
2022/08/20 14:02:04;;;;;;;;;;;24.60;95.90;;;;;;5051764;28;20004;-51
2022/08/20 14:04:29;;;;;;;;;;;24.60;96.40;;;;;;5052873;28;19932;-55
2022/08/20 14:06:55;;;;;;;;;;;24.60;97.00;;;;;;5051874;28;19927;-53
2022/08/20 14:09:20;;;;;;;;;;;24.60;97.40;;;;;;5052216;28;19958;-48
2022/08/20 14:11:46;;;;;;;;;;;24.60;97.70;;;;;;5050715;28;20392;-52
2022/08/20 14:14:11;;;;;;;;;;;24.60;98.10;;;;;;5051352;28;19913;-51
2022/08/20 14:16:38;;;;;;;;;;;24.70;98.20;;;;;;5051611;28;19913;-51
2022/08/20 14:19:04;;;;;;;;;;;24.70;98.30;;;;;;5050896;28;19927;-51
2022/08/20 14:21:29;;;;;;;;;;;24.70;98.70;;;;;;5051530;28;19916;-53